createdAt,value
2018-05-12T00:00:32.852Z,97445
2018-05-12T00:03:13.981Z,97435
2018-05-12T00:05:55.115Z,97439
2018-05-12T00:08:35.408Z,97433
2018-05-12T00:11:16.509Z,97444
2018-05-12T00:13:56.835Z,97432
2018-05-12T00:16:37.247Z,97432
2018-05-12T00:19:17.554Z,97423
2018-05-12T00:21:58.692Z,97429
2018-05-12T00:24:39.863Z,97417
2018-05-12T00:27:21.724Z,97423
2018-05-12T00:30:02.469Z,97419
2018-05-12T00:32:42.768Z,97425
2018-05-12T00:35:23.169Z,97423
2018-05-12T00:38:03.484Z,97425
2018-05-12T00:40:43.936Z,97421
2018-05-12T00:43:24.704Z,97419
2018-05-12T00:46:05.916Z,97416
2018-05-12T00:48:47.744Z,97416
2018-05-12T00:51:27.996Z,97422
2018-05-12T00:54:08.405Z,97423
2018-05-12T00:56:48.770Z,97410
2018-05-12T00:59:29.914Z,97412
2018-05-12T01:02:11.044Z,97417
2018-05-12T01:04:52.294Z,97412
2018-05-12T01:07:32.686Z,97412
2018-05-12T01:10:13.749Z,97412
2018-05-12T01:12:54.438Z,97408
2018-05-12T01:15:39.825Z,97400
2018-05-12T01:18:20.156Z,97404
2018-05-12T01:21:01.418Z,97411
2018-05-12T01:23:41.890Z,97409
2018-05-12T01:26:22.763Z,97399
2018-05-12T01:29:03.080Z,97394
2018-05-12T01:31:43.407Z,97401
2018-05-12T01:34:26.629Z,97402
2018-05-12T01:37:07.701Z,97396
2018-05-12T01:39:48.183Z,97395
2018-05-12T01:42:28.610Z,97396
2018-05-12T01:45:08.942Z,97389
2018-05-12T01:47:49.352Z,97398
2018-05-12T01:50:29.748Z,97393
2018-05-12T01:53:10.068Z,97391
2018-05-12T01:55:52.045Z,97394
2018-05-12T01:58:32.414Z,97398
2018-05-12T02:01:35.041Z,97406
2018-05-12T02:04:15.485Z,97401
2018-05-12T02:06:55.820Z,97400
2018-05-12T02:09:36.301Z,97394
2018-05-12T02:12:17.391Z,97401
2018-05-12T02:14:58.703Z,97394
2018-05-12T02:17:39.013Z,97399
2018-05-12T02:20:19.356Z,97400
2018-05-12T02:22:59.690Z,97390
2018-05-12T02:25:40.175Z,97390
2018-05-12T02:28:21.510Z,97388
2018-05-12T02:31:02.152Z,97386
2018-05-12T02:33:43.250Z,97389
2018-05-12T02:36:24.049Z,97390
2018-05-12T02:39:04.553Z,97387
2018-05-12T02:41:45.029Z,97394
2018-05-12T02:44:25.419Z,97401
2018-05-12T02:47:05.758Z,97394
2018-05-12T02:49:46.048Z,97392
2018-05-12T02:52:26.437Z,97388
2018-05-12T02:55:06.810Z,97380
2018-05-12T02:57:47.121Z,97386
2018-05-12T03:00:27.521Z,97385
2018-05-12T03:03:07.901Z,97384
2018-05-12T03:05:49.114Z,97383
2018-05-12T03:08:29.418Z,97384
2018-05-12T03:11:09.809Z,97391
2018-05-12T03:13:50.810Z,97382
2018-05-12T03:16:31.188Z,97392
2018-05-12T03:19:11.510Z,97389
2018-05-12T03:21:52.319Z,97389
2018-05-12T03:24:32.667Z,97390
2018-05-12T03:27:13.132Z,97399
2018-05-12T03:29:54.213Z,97395
2018-05-12T03:32:34.676Z,97387
2018-05-12T03:35:15.005Z,97385
2018-05-12T03:37:55.208Z,97387
2018-05-12T03:40:35.536Z,97382
2018-05-12T03:43:15.764Z,97387
2018-05-12T03:45:56.104Z,97382
2018-05-12T03:48:36.444Z,97382
2018-05-12T03:51:18.472Z,97390
2018-05-12T03:53:59.276Z,97389
2018-05-12T03:56:39.449Z,97380
2018-05-12T03:59:20.632Z,97384
2018-05-12T04:02:01.342Z,97397
2018-05-12T04:05:00.473Z,97392
2018-05-12T04:07:58.813Z,97393
2018-05-12T04:13:46.470Z,97390
2018-05-12T04:16:26.935Z,97392
2018-05-12T04:19:07.397Z,97396
2018-05-12T04:21:47.786Z,97398
2018-05-12T04:24:28.177Z,97397
2018-05-12T04:27:08.523Z,97391
2018-05-12T04:29:48.947Z,97396
2018-05-12T04:32:29.505Z,97404
2018-05-12T04:35:10.624Z,97397
2018-05-12T04:37:52.449Z,97404
2018-05-12T04:40:32.850Z,97413
2018-05-12T04:43:13.384Z,97405
2018-05-12T04:45:54.348Z,97409
2018-05-12T04:48:34.859Z,97410
2018-05-12T04:51:15.980Z,97415
2018-05-12T04:53:56.313Z,97415
2018-05-12T04:56:36.877Z,97423
2018-05-12T04:59:17.226Z,97419
2018-05-12T05:01:57.669Z,97417
2018-05-12T05:04:38.047Z,97413
2018-05-12T05:07:18.473Z,97413
2018-05-12T05:09:59.279Z,97418
2018-05-12T05:12:39.578Z,97414
2018-05-12T05:15:19.834Z,97421
2018-05-12T05:18:00.109Z,97422
2018-05-12T05:20:40.298Z,97413
2018-05-12T05:23:21.257Z,97420
2018-05-12T05:26:02.318Z,97414
2018-05-12T05:28:42.636Z,97416
2018-05-12T05:31:25.096Z,97407
2018-05-12T05:34:05.524Z,97410
2018-05-12T05:36:45.861Z,97412
2018-05-12T05:39:26.292Z,97420
2018-05-12T05:42:06.710Z,97413
2018-05-12T05:44:47.045Z,97417
2018-05-12T05:47:28.193Z,97422
2018-05-12T05:50:08.878Z,97422
2018-05-12T05:52:49.261Z,97422
2018-05-12T05:55:29.685Z,97421
2018-05-12T05:58:10.025Z,97418
2018-05-12T06:00:50.817Z,97420
2018-05-12T06:03:31.010Z,97426
2018-05-12T06:06:11.173Z,97423
2018-05-12T06:08:52.572Z,97430
2018-05-12T06:11:33.045Z,97426
2018-05-12T06:14:13.414Z,97425
2018-05-12T06:16:54.293Z,97431
2018-05-12T06:19:34.491Z,97419
2018-05-12T06:22:14.829Z,97424
2018-05-12T06:24:55.060Z,97435
2018-05-12T06:27:35.493Z,97422
2018-05-12T06:30:15.889Z,97434
2018-05-12T06:32:56.227Z,97435
2018-05-12T06:35:36.564Z,97428
2018-05-12T06:38:17.024Z,97430
2018-05-12T06:40:57.358Z,97430
2018-05-12T06:43:38.299Z,97429
2018-05-12T06:46:18.680Z,97422
2018-05-12T06:49:00.175Z,97431
2018-05-12T06:51:41.444Z,97429
2018-05-12T06:54:23.663Z,97435
2018-05-12T06:57:04.817Z,97434
2018-05-12T06:59:45.315Z,97432
2018-05-12T07:02:26.685Z,97427
2018-05-12T07:05:07.092Z,97432
2018-05-12T07:07:47.532Z,97438
2018-05-12T07:10:27.879Z,97443
2018-05-12T07:13:08.984Z,97431
2018-05-12T07:15:49.310Z,97430
2018-05-12T07:18:30.613Z,97440
2018-05-12T07:21:11.570Z,97429
2018-05-12T07:23:53.017Z,97428
2018-05-12T07:26:34.170Z,97427
2018-05-12T07:29:15.136Z,97431
2018-05-12T07:31:55.594Z,97422
2018-05-12T07:34:35.948Z,97423
2018-05-12T07:37:17.129Z,97423
2018-05-12T07:39:57.786Z,97426
2018-05-12T07:42:38.300Z,97426
2018-05-12T07:45:20.226Z,97431
2018-05-12T07:48:00.541Z,97425
2018-05-12T07:50:41.127Z,97425
2018-05-12T07:53:22.461Z,97424
2018-05-12T07:56:02.910Z,97423
2018-05-12T07:58:43.220Z,97422
2018-05-12T08:01:24.917Z,97421
2018-05-12T08:04:05.770Z,97420
2018-05-12T08:06:46.100Z,97419
2018-05-12T08:09:26.561Z,97420
2018-05-12T08:12:06.896Z,97425
2018-05-12T08:14:47.368Z,97427
2018-05-12T08:17:27.696Z,97421
2018-05-12T08:20:08.006Z,97426
2018-05-12T08:22:48.349Z,97416
2018-05-12T08:25:28.681Z,97422
2018-05-12T08:28:09.861Z,97425
2018-05-12T08:30:50.123Z,97419
2018-05-12T08:33:31.343Z,97417
2018-05-12T08:36:11.646Z,97410
2018-05-12T08:38:52.620Z,97413
2018-05-12T08:41:32.956Z,97420
2018-05-12T08:44:13.141Z,97405
2018-05-12T08:46:54.840Z,97409
2018-05-12T08:49:35.260Z,97401
2018-05-12T08:52:16.557Z,97403
2018-05-12T08:54:56.962Z,97404
2018-05-12T08:57:37.264Z,97410
2018-05-12T09:00:17.656Z,97413
2018-05-12T09:02:57.940Z,97409
2018-05-12T09:05:40.049Z,97405
2018-05-12T09:08:21.531Z,97411
2018-05-12T09:11:01.789Z,97412
2018-05-12T09:13:42.075Z,97412
2018-05-12T09:16:22.933Z,97417
2018-05-12T09:19:03.330Z,97412
2018-05-12T09:21:44.113Z,97422
2018-05-12T09:24:24.921Z,97422
2018-05-12T09:27:06.143Z,97416
2018-05-12T09:29:46.618Z,97414
2018-05-12T09:32:26.943Z,97407
2018-05-12T09:35:07.281Z,97410
2018-05-12T09:37:47.638Z,97414
2018-05-12T09:40:27.959Z,97403
2018-05-12T09:43:09.497Z,97402
2018-05-12T09:45:51.381Z,97405
2018-05-12T09:48:35.449Z,97401
2018-05-12T09:51:15.669Z,97401
2018-05-12T09:53:57.302Z,97397
2018-05-12T09:56:37.537Z,97404
2018-05-12T09:59:17.931Z,97396
2018-05-12T10:01:58.233Z,97393
2018-05-12T10:04:38.557Z,97398
2018-05-12T10:07:18.876Z,97392
2018-05-12T10:09:59.272Z,97388
2018-05-12T10:12:39.618Z,97379
2018-05-12T10:15:20.005Z,97374
2018-05-12T10:18:00.492Z,97369
2018-05-12T10:20:41.580Z,97376
2018-05-12T10:23:23.080Z,97380
2018-05-12T10:26:03.376Z,97372
2018-05-12T10:28:43.821Z,97377
2018-05-12T10:31:24.102Z,97367
2018-05-12T10:34:04.538Z,97362
2018-05-12T10:36:44.980Z,97355
2018-05-12T10:39:25.759Z,97362
2018-05-12T10:42:06.102Z,97355
2018-05-12T10:44:46.503Z,97343
2018-05-12T10:47:26.826Z,97350
2018-05-12T10:50:07.172Z,97349
2018-05-12T10:52:47.560Z,97344
2018-05-12T10:55:29.189Z,97344
2018-05-12T10:58:09.574Z,97352
2018-05-12T11:00:49.892Z,97346
2018-05-12T11:03:30.536Z,97343
2018-05-12T11:06:11.009Z,97343
2018-05-12T11:08:52.385Z,97340
2018-05-12T11:11:35.772Z,97336
2018-05-12T11:14:16.299Z,97346
2018-05-12T11:16:56.757Z,97346
2018-05-12T11:19:37.041Z,97344
2018-05-12T11:22:18.181Z,97335
2018-05-12T11:24:58.708Z,97338
2018-05-12T11:27:39.027Z,97326
2018-05-12T11:30:19.369Z,97333
2018-05-12T11:33:00.980Z,97325
2018-05-12T11:35:41.349Z,97329
2018-05-12T11:38:22.626Z,97325
2018-05-12T11:41:03.245Z,97319
2018-05-12T11:43:43.569Z,97310
2018-05-12T11:46:23.888Z,97314
2018-05-12T11:49:04.091Z,97304
2018-05-12T11:51:44.560Z,97307
2018-05-12T11:54:25.268Z,97310
2018-05-12T11:57:05.725Z,97311
2018-05-12T11:59:46.046Z,97323
2018-05-12T12:02:26.514Z,97319
2018-05-12T12:05:06.858Z,97327
2018-05-12T12:07:47.186Z,97326
2018-05-12T12:10:27.508Z,97323
2018-05-12T12:13:07.900Z,97336
2018-05-12T12:15:49.008Z,97334
2018-05-12T12:18:29.370Z,97331
2018-05-12T12:21:09.709Z,97334
2018-05-12T12:23:50.989Z,97334
2018-05-12T12:26:31.446Z,97331
2018-05-12T12:29:11.822Z,97336
2018-05-12T12:31:53.557Z,97316
2018-05-12T12:34:34.704Z,97317
2018-05-12T12:37:16.227Z,97313
2018-05-12T12:39:56.592Z,97325
2018-05-12T12:42:37.062Z,97315
2018-05-12T12:45:17.538Z,97320
2018-05-12T12:47:57.851Z,97315
2018-05-12T12:50:38.287Z,97308
2018-05-12T12:53:18.769Z,97299
2018-05-12T12:55:59.116Z,97301
2018-05-12T12:58:39.581Z,97290
2018-05-12T13:01:19.914Z,97291
2018-05-12T13:04:01.115Z,97289
2018-05-12T13:06:41.593Z,97289
2018-05-12T13:09:22.497Z,97292
2018-05-12T13:12:03.073Z,97289
2018-05-12T13:14:43.434Z,97284
2018-05-12T13:17:24.055Z,97276
2018-05-12T13:20:05.147Z,97276
2018-05-12T13:22:45.504Z,97266
2018-05-12T13:25:26.068Z,97265
2018-05-12T13:28:06.457Z,97259
2018-05-12T13:30:46.810Z,97260
2018-05-12T13:33:28.863Z,97259
2018-05-12T13:36:09.154Z,97252
2018-05-12T13:38:50.450Z,97253
2018-05-12T13:41:31.325Z,97254
2018-05-12T13:44:11.697Z,97260
2018-05-12T13:46:53.459Z,97252
2018-05-12T13:49:33.612Z,97252
2018-05-12T13:52:14.051Z,97243
2018-05-12T13:54:54.954Z,97237
2018-05-12T13:57:35.306Z,97242
2018-05-12T14:00:15.604Z,97237
2018-05-12T14:02:56.427Z,97238
2018-05-12T14:05:36.984Z,97240
2018-05-12T14:08:17.357Z,97239
2018-05-12T14:10:57.792Z,97231
2018-05-12T14:13:38.333Z,97230
2018-05-12T14:16:20.602Z,97231
2018-05-12T14:19:01.559Z,97228
2018-05-12T14:21:41.862Z,97225
2018-05-12T14:24:22.707Z,97215
2018-05-12T14:27:02.897Z,97223
2018-05-12T14:29:43.212Z,97219
2018-05-12T14:32:25.172Z,97222
2018-05-12T14:35:05.510Z,97216
2018-05-12T14:37:45.864Z,97220
2018-05-12T14:40:26.522Z,97226
2018-05-12T14:43:06.875Z,97222
2018-05-12T14:45:47.294Z,97226
2018-05-12T14:48:34.560Z,97219
2018-05-12T14:51:14.982Z,97225
2018-05-12T14:53:55.928Z,97232
2018-05-12T14:56:36.541Z,97217
2018-05-12T14:59:22.415Z,97211
2018-05-12T15:02:02.727Z,97209
2018-05-12T15:04:43.182Z,97199
2018-05-12T15:07:24.255Z,97202
2018-05-12T15:10:04.502Z,97211
2018-05-12T15:12:44.720Z,97201
2018-05-12T15:15:25.412Z,97209
2018-05-12T15:18:05.767Z,97207
2018-05-12T15:20:46.121Z,97208
2018-05-12T15:23:26.974Z,97204
2018-05-12T15:26:07.524Z,97205
2018-05-12T15:28:47.928Z,97208
2018-05-12T15:31:28.244Z,97205
2018-05-12T15:34:08.588Z,97208
2018-05-12T15:36:49.035Z,97208
2018-05-12T15:39:29.367Z,97202
2018-05-12T15:42:10.605Z,97214
2018-05-12T15:44:50.893Z,97207
2018-05-12T15:47:31.394Z,97215
2018-05-12T15:50:12.517Z,97207
2018-05-12T15:52:53.717Z,97211
2018-05-12T15:55:34.047Z,97217
2018-05-12T15:58:14.385Z,97210
2018-05-12T16:00:55.368Z,97211
2018-05-12T16:03:35.792Z,97213
2018-05-12T16:06:16.221Z,97216
2018-05-12T16:08:57.229Z,97211
2018-05-12T16:11:37.455Z,97211
2018-05-12T16:14:18.189Z,97214
2018-05-12T16:16:58.514Z,97213
2018-05-12T16:19:38.866Z,97215
2018-05-12T16:22:19.223Z,97220
2018-05-12T16:24:59.542Z,97203
2018-05-12T16:27:40.691Z,97205
2018-05-12T16:30:21.496Z,97200
2018-05-12T16:33:01.908Z,97203
2018-05-12T16:35:42.204Z,97208
2018-05-12T16:38:23.492Z,97199
2018-05-12T16:41:03.812Z,97201
2018-05-12T16:43:43.993Z,97202
2018-05-12T16:46:24.367Z,97199
2018-05-12T16:49:04.589Z,97197
2018-05-12T16:51:45.178Z,97196
2018-05-12T16:54:25.966Z,97194
2018-05-12T16:57:06.559Z,97190
2018-05-12T16:59:47.641Z,97195
2018-05-12T17:02:28.014Z,97192
2018-05-12T17:05:08.424Z,97201
2018-05-12T17:07:48.811Z,97195
2018-05-12T17:10:29.147Z,97191
2018-05-12T17:13:09.752Z,97201
2018-05-12T17:15:50.091Z,97186
2018-05-12T17:18:32.569Z,97194
2018-05-12T17:21:13.629Z,97190
2018-05-12T17:23:55.166Z,97202
2018-05-12T17:26:35.511Z,97203
2018-05-12T17:29:16.876Z,97203
2018-05-12T17:31:57.212Z,97206
2018-05-12T17:34:37.663Z,97208
2018-05-12T17:37:18.018Z,97210
2018-05-12T17:39:58.404Z,97208
2018-05-12T17:42:40.177Z,97210
2018-05-12T17:45:20.501Z,97223
2018-05-12T17:48:00.975Z,97210
2018-05-12T17:50:42.527Z,97207
2018-05-12T17:53:23.562Z,97220
2018-05-12T17:56:03.851Z,97217
2018-05-12T17:58:44.022Z,97217
2018-05-12T18:01:24.403Z,97210
2018-05-12T18:04:05.551Z,97213
2018-05-12T18:06:45.933Z,97207
2018-05-12T18:09:26.760Z,97219
2018-05-12T18:12:07.281Z,97223
2018-05-12T18:14:47.593Z,97222
2018-05-12T18:17:28.626Z,97220
2018-05-12T18:20:08.921Z,97222
2018-05-12T18:22:49.196Z,97225
2018-05-12T18:25:29.492Z,97227
2018-05-12T18:28:09.781Z,97230
2018-05-12T18:30:50.243Z,97235
2018-05-12T18:33:31.189Z,97230
2018-05-12T18:36:11.506Z,97229
2018-05-12T18:38:52.616Z,97227
2018-05-12T18:41:32.983Z,97239
2018-05-12T18:44:13.351Z,97237
2018-05-12T18:46:55.066Z,97238
2018-05-12T18:49:35.376Z,97242
2018-05-12T18:52:15.679Z,97240
2018-05-12T18:54:56.477Z,97240
2018-05-12T18:57:36.852Z,97241
2018-05-12T19:00:17.228Z,97249
2018-05-12T19:02:57.664Z,97247
2018-05-12T19:05:37.989Z,97249
2018-05-12T19:08:19.160Z,97253
2018-05-12T19:10:59.534Z,97247
2018-05-12T19:13:39.986Z,97246
2018-05-12T19:16:20.512Z,97243
2018-05-12T19:19:01.428Z,97243
2018-05-12T19:21:41.891Z,97242
2018-05-12T19:24:23.045Z,97245
2018-05-12T19:27:04.365Z,97238
2018-05-12T19:29:44.744Z,97244
2018-05-12T19:32:25.096Z,97245
2018-05-12T19:35:05.536Z,97235
2018-05-12T19:37:46.765Z,97234
2018-05-12T19:40:27.269Z,97233
2018-05-12T19:43:07.728Z,97232
2018-05-12T19:45:49.149Z,97237
2018-05-12T19:48:35.511Z,97231
2018-05-12T19:51:15.818Z,97235
2018-05-12T19:53:57.113Z,97235
2018-05-12T19:56:37.535Z,97233
2018-05-12T19:59:17.848Z,97228
2018-05-12T20:01:59.112Z,97233
2018-05-12T20:04:39.597Z,97235
2018-05-12T20:07:19.929Z,97228
2018-05-12T20:10:01.333Z,97223
2018-05-12T20:12:42.473Z,97231
2018-05-12T20:15:23.448Z,97237
2018-05-12T20:18:03.898Z,97231
2018-05-12T20:20:44.344Z,97231
2018-05-12T20:23:25.185Z,97228
2018-05-12T20:26:05.508Z,97228
2018-05-12T20:28:45.918Z,97230
2018-05-12T20:31:29.775Z,97229
2018-05-12T20:34:10.072Z,97228
2018-05-12T20:36:50.536Z,97222
2018-05-12T20:39:31.146Z,97220
2018-05-12T20:42:11.819Z,97226
2018-05-12T20:44:52.970Z,97217
2018-05-12T20:47:34.248Z,97225
2018-05-12T20:50:14.551Z,97234
2018-05-12T20:52:55.043Z,97234
2018-05-12T20:55:35.389Z,97229
2018-05-12T20:58:15.822Z,97242
2018-05-12T21:00:56.545Z,97234
2018-05-12T21:03:36.983Z,97226
2018-05-12T21:06:17.291Z,97220
2018-05-12T21:08:58.406Z,97222
2018-05-12T21:11:39.712Z,97219
2018-05-12T21:14:20.059Z,97217
2018-05-12T21:17:01.238Z,97215
2018-05-12T21:19:41.737Z,97218
2018-05-12T21:22:22.486Z,97221
2018-05-12T21:25:03.612Z,97218
2018-05-12T21:27:43.989Z,97224
2018-05-12T21:30:24.454Z,97219
2018-05-12T21:33:05.436Z,97224
2018-05-12T21:35:45.886Z,97220
2018-05-12T21:38:27.299Z,97219
2018-05-12T21:41:07.842Z,97226
2018-05-12T21:43:48.285Z,97219
2018-05-12T21:46:28.655Z,97223
2018-05-12T21:49:09.046Z,97220
2018-05-12T21:51:49.433Z,97219
2018-05-12T21:54:29.914Z,97232
2018-05-12T21:57:11.137Z,97224
2018-05-12T21:59:52.493Z,97222
2018-05-12T22:02:32.933Z,97225
2018-05-12T22:05:14.112Z,97214
2018-05-12T22:07:54.609Z,97214
2018-05-12T22:10:34.872Z,97223
2018-05-12T22:13:15.374Z,97216
2018-05-12T22:15:55.925Z,97214
2018-05-12T22:18:41.342Z,97213
2018-05-12T22:21:21.640Z,97212
2018-05-12T22:24:02.034Z,97215
2018-05-12T22:26:42.459Z,97204
2018-05-12T22:29:23.513Z,97215
2018-05-12T22:32:04.095Z,97203
2018-05-12T22:34:44.362Z,97208
2018-05-12T22:37:24.819Z,97203
2018-05-12T22:40:05.279Z,97204
2018-05-12T22:42:45.714Z,97194
2018-05-12T22:45:26.835Z,97196
2018-05-12T22:48:07.184Z,97193
2018-05-12T22:50:47.394Z,97195
2018-05-12T22:53:27.643Z,97200
2018-05-12T22:56:08.141Z,97200
2018-05-12T22:58:48.497Z,97200
2018-05-12T23:01:28.957Z,97191
2018-05-12T23:04:09.371Z,97192
2018-05-12T23:06:49.725Z,97181
2018-05-12T23:09:30.191Z,97185
2018-05-12T23:12:10.645Z,97179
2018-05-12T23:14:51.733Z,97180
2018-05-12T23:17:32.268Z,97178
2018-05-12T23:20:12.448Z,97184
2018-05-12T23:22:53.507Z,97183
2018-05-12T23:25:34.346Z,97185
2018-05-12T23:28:14.672Z,97180
2018-05-12T23:30:55.433Z,97189
2018-05-12T23:33:35.830Z,97189
2018-05-12T23:36:16.079Z,97191
2018-05-12T23:38:56.754Z,97198
2018-05-12T23:41:37.129Z,97194
2018-05-12T23:44:17.331Z,97192
2018-05-12T23:46:57.693Z,97193
2018-05-12T23:49:38.569Z,97196
2018-05-12T23:52:18.918Z,97187
2018-05-12T23:54:59.260Z,97197
2018-05-12T23:57:39.429Z,97188
